Time;durP1;ratioP1;P1;durP2;ratioP2;P2;SDS_P1;SDS_P2;PMS_P1;PMS_P2;Temp;Humidity;BMP_temperature;BMP_pressure;BME280_temperature;BME280_humidity;BME280_pressure;Samples;Min_cycle;Max_cycle;Signal;HPM_P1;HPM_P2
2022/01/23 00:00:19;;;;;;;104.35;44.97;;;;;;;2.64;100.00;101667.19;4940991;29;20044;-80
2022/01/23 00:02:54;;;;;;;96.38;44.72;;;;;;;2.71;100.00;101669.41;4944343;29;20039;-81
2022/01/23 00:05:23;;;;;;;98.88;45.28;;;;;;;2.89;100.00;101663.13;4937949;29;20027;-81
2022/01/23 00:07:51;;;;;;;106.40;45.78;;;;;;;2.47;100.00;101666.34;4938929;29;20075;-83
2022/01/23 00:10:17;;;;;;;96.07;44.08;;;;;;;2.70;100.00;101665.06;4940611;29;20039;-83
2022/01/23 00:12:51;;;;;;;106.07;45.78;;;;;;;2.79;100.00;101661.09;4941134;29;20059;-81
2022/01/23 00:18:02;;;;;;;102.78;44.78;;;;;;;2.22;100.00;101672.97;4943696;29;20119;-81
2022/01/23 00:20:31;;;;;;;88.32;39.63;;;;;;;2.22;100.00;101681.63;4940913;29;20056;-81
2022/01/23 00:23:00;;;;;;;90.80;39.00;;;;;;;1.81;100.00;101672.47;4922598;29;20028;-82
2022/01/23 00:30:59;;;;;;;98.20;39.17;;;;;;;1.54;100.00;101687.78;4919398;29;20122;-82
2022/01/23 00:33:30;;;;;;;95.30;38.42;;;;;;;1.84;100.00;101686.22;4919057;29;20048;-81
2022/01/23 00:35:57;;;;;;;92.68;38.38;;;;;;;1.72;100.00;101681.63;4908943;29;20048;-81
2022/01/23 00:38:23;;;;;;;94.53;40.38;;;;;;;1.63;100.00;101691.69;4920329;29;20036;-81
2022/01/23 00:40:48;;;;;;;90.38;39.30;;;;;;;1.84;100.00;101690.59;4918054;29;20052;-81
2022/01/23 00:43:25;;;;;;;92.57;38.20;;;;;;;1.87;100.00;101695.69;4917714;29;20028;-81
2022/01/23 00:45:56;;;;;;;98.97;38.75;;;;;;;1.89;100.00;101704.31;4920945;29;20044;-81
2022/01/23 00:48:28;;;;;;;99.43;43.00;;;;;;;1.73;100.00;101711.19;4920156;29;20474;-80
2022/01/23 00:50:56;;;;;;;103.80;41.28;;;;;;;1.74;100.00;101711.13;4927269;29;20035;-81
2022/01/23 00:53:22;;;;;;;108.43;43.30;;;;;;;2.03;100.00;101720.97;4938289;29;20512;-81
2022/01/23 00:55:48;;;;;;;104.75;43.50;;;;;;;1.95;100.00;101717.06;4926877;29;20031;-80
2022/01/23 00:58:15;;;;;;;112.10;43.17;;;;;;;1.70;100.00;101717.44;4920381;29;20472;-83
2022/01/23 01:00:42;;;;;;;108.80;40.53;;;;;;;1.59;100.00;101718.91;4920537;29;20040;-83
2022/01/23 01:03:08;;;;;;;114.95;43.65;;;;;;;1.73;100.00;101729.50;4920005;29;20043;-81
2022/01/23 01:05:34;;;;;;;109.45;44.85;;;;;;;1.63;100.00;101721.25;4919608;29;20110;-80
2022/01/23 01:08:09;;;;;;;126.10;46.45;;;;;;;1.63;100.00;101723.03;4919123;29;20052;-81
2022/01/23 01:10:56;;;;;;;119.63;46.47;;;;;;;1.57;100.00;101729.41;4921118;29;20167;-83
2022/01/23 01:13:29;;;;;;;124.32;45.70;;;;;;;1.45;100.00;101725.66;4912801;29;20052;-86
2022/01/23 01:16:34;;;;;;;112.53;43.90;;;;;;;1.41;100.00;101718.88;4919346;29;20039;-81
2022/01/23 01:37:48;;;;;;;129.27;47.50;;;;;;;0.39;100.00;101724.56;4935284;29;20044;-82
2022/01/23 01:40:14;;;;;;;124.32;47.95;;;;;;;0.23;100.00;101724.38;4935812;29;20087;-82
2022/01/23 01:42:40;;;;;;;126.88;48.17;;;;;;;0.10;100.00;101722.38;4935205;29;20039;-85
2022/01/23 01:45:07;;;;;;;120.82;46.05;;;;;;;0.06;100.00;101715.59;4934635;29;20152;-83
2022/01/23 01:47:48;;;;;;;126.90;46.20;;;;;;;-0.05;100.00;101718.66;4935937;29;20110;-81
2022/01/23 01:50:14;;;;;;;121.63;45.67;;;;;;;-0.13;100.00;101720.75;4936266;29;20039;-82
2022/01/23 01:52:41;;;;;;;123.55;45.60;;;;;;;-0.18;100.00;101718.34;4935239;29;20024;-81
2022/01/23 01:55:10;;;;;;;122.60;46.17;;;;;;;-0.12;100.00;101712.03;4937103;29;20036;-82
2022/01/23 01:57:51;;;;;;;102.95;41.75;;;;;;;-0.15;100.00;101701.72;4934427;29;20374;-80
2022/01/23 02:00:44;;;;;;;113.45;41.85;;;;;;;-0.22;100.00;101705.50;4896516;29;20043;-80
2022/01/23 02:08:50;;;;;;;76.57;32.13;;;;;;;0.17;100.00;101709.00;4933978;29;20509;-81
2022/01/23 02:11:22;;;;;;;80.05;31.40;;;;;;;0.11;100.00;101701.47;4934379;29;20079;-88
2022/01/23 02:13:56;;;;;;;81.47;31.60;;;;;;;0.21;100.00;101702.75;4934325;29;20040;-83
2022/01/23 02:55:21;;;;;;;82.95;33.10;;;;;;;0.05;100.00;101670.47;4861766;29;20543;-83
2022/01/23 02:57:54;;;;;;;84.13;32.55;;;;;;;0.08;100.00;101672.06;4849777;29;20060;-82
2022/01/23 03:00:27;;;;;;;69.97;30.00;;;;;;;0.25;100.00;101667.81;4854337;29;20052;-82
2022/01/23 03:03:10;;;;;;;76.70;31.83;;;;;;;0.31;100.00;101670.16;4851967;29;20648;-84
2022/01/23 03:14:02;;;;;;;71.13;29.58;;;;;;;0.42;100.00;101667.91;4827191;29;20071;-82
2022/01/23 03:27:53;;;;;;;70.78;28.30;;;;;;;0.62;100.00;101673.97;4919611;29;20040;-83
2022/01/23 03:30:35;;;;;;;63.50;27.15;;;;;;;0.52;100.00;101669.19;4918198;29;20048;-81
2022/01/23 03:33:00;;;;;;;61.90;26.88;;;;;;;0.47;100.00;101660.72;4919213;29;20060;-82
2022/01/23 03:35:26;;;;;;;65.43;29.27;;;;;;;0.48;100.00;101659.81;4919301;29;20063;-84
2022/01/23 03:37:51;;;;;;;63.92;28.13;;;;;;;0.47;100.00;101660.72;4919649;29;20040;-84
2022/01/23 03:40:19;;;;;;;57.78;26.70;;;;;;;0.66;100.00;101659.88;4919517;29;20419;-83
2022/01/23 03:42:46;;;;;;;62.10;26.10;;;;;;;0.59;100.00;101666.28;4920643;29;20115;-82
2022/01/23 03:47:52;;;;;;;70.85;29.45;;;;;;;0.70;100.00;101667.47;4918397;29;20130;-83
2022/01/23 03:50:18;;;;;;;65.88;28.80;;;;;;;0.68;100.00;101663.25;4919452;29;20529;-84
2022/01/23 03:52:50;;;;;;;66.38;28.75;;;;;;;0.76;100.00;101666.34;4918073;29;20043;-82
2022/01/23 03:55:16;;;;;;;64.88;27.63;;;;;;;0.71;100.00;101663.09;4918798;29;20040;-82
2022/01/23 03:57:42;;;;;;;68.93;29.10;;;;;;;0.81;100.00;101666.97;4918118;29;20482;-82
2022/01/23 04:00:09;;;;;;;61.85;26.80;;;;;;;0.99;100.00;101673.94;4919428;29;20126;-81
2022/01/23 04:02:40;;;;;;;62.72;26.20;;;;;;;1.15;100.00;101674.06;4919587;29;20025;-84
2022/01/23 04:05:10;;;;;;;58.47;26.17;;;;;;;1.13;100.00;101661.06;4918346;29;20100;-81
2022/01/23 04:07:36;;;;;;;66.53;27.92;;;;;;;1.03;100.00;101665.03;4918223;29;20520;-83
2022/01/23 04:10:04;;;;;;;64.30;27.58;;;;;;;0.99;100.00;101658.28;4918698;29;20044;-84
2022/01/23 04:15:16;;;;;;;67.35;28.25;;;;;;;0.87;100.00;101664.06;4927647;29;20055;-81
2022/01/23 04:34:21;;;;;;;56.35;26.48;;;;;;;0.52;100.00;101695.28;4917645;29;20108;-81
2022/01/23 05:01:44;;;;;;;54.08;24.20;;;;;;;0.50;100.00;101706.66;4916303;29;20079;-81
2022/01/23 05:07:07;;;;;;;53.35;22.92;;;;;;;0.31;100.00;101716.22;4916420;29;20047;-82
2022/01/23 05:09:51;;;;;;;57.90;22.70;;;;;;;0.49;100.00;101721.50;4917770;29;20107;-84
2022/01/23 05:12:28;;;;;;;68.05;27.50;;;;;;;0.21;100.00;101726.22;4917120;29;20504;-81
2022/01/23 05:14:55;;;;;;;77.07;30.13;;;;;;;0.02;100.00;101725.31;4917813;29;20040;-83
2022/01/23 05:17:20;;;;;;;70.65;28.23;;;;;;;0.02;100.00;101725.31;4917715;29;20032;-82
2022/01/23 05:19:46;;;;;;;70.03;27.08;;;;;;;-0.08;100.00;101732.69;4916295;29;20448;-83
2022/01/23 05:24:46;;;;;;;76.50;29.58;;;;;;;-0.03;100.00;101732.47;4917428;29;20040;-81
2022/01/23 05:27:12;;;;;;;82.25;31.75;;;;;;;0.05;100.00;101735.59;4917369;29;20498;-83
2022/01/23 05:29:37;;;;;;;89.15;34.25;;;;;;;-0.06;100.00;101737.81;4917490;29;20043;-80
2022/01/23 05:32:05;;;;;;;91.25;36.47;;;;;;;-0.23;100.00;101727.28;4915604;29;20050;-80
2022/01/23 05:34:31;;;;;;;84.63;34.95;;;;;;;0.06;100.00;101733.84;4917316;29;20044;-82
2022/01/23 05:37:07;;;;;;;86.82;32.85;;;;;;;0.21;100.00;101731.44;4901552;29;20036;-81
2022/01/23 05:39:35;;;;;;;93.47;35.20;;;;;;;0.18;100.00;101730.72;4915649;29;20176;-80
2022/01/23 05:42:07;;;;;;;92.05;35.85;;;;;;;0.06;100.00;101734.72;4915990;29;20044;-82
2022/01/23 05:44:40;;;;;;;92.18;36.22;;;;;;;-0.21;100.00;101738.47;4915924;29;20507;-81
2022/01/23 05:47:08;;;;;;;94.25;34.75;;;;;;;-0.18;100.00;101748.75;4915647;29;20044;-82
2022/01/23 05:50:00;;;;;;;101.40;37.35;;;;;;;-0.21;100.00;101741.06;4914210;29;20056;-81
2022/01/23 05:52:37;;;;;;;106.78;40.00;;;;;;;-0.34;100.00;101742.50;4901392;29;20032;-83
2022/01/23 05:55:26;;;;;;;102.50;39.05;;;;;;;-0.38;100.00;101735.72;4912368;29;20052;-82
2022/01/23 05:58:00;;;;;;;105.43;38.58;;;;;;;-0.47;100.00;101755.16;4916556;29;20043;-82
2022/01/23 06:00:35;;;;;;;107.45;39.03;;;;;;;-0.64;100.00;101752.38;4902418;29;20044;-82
2022/01/23 06:03:06;;;;;;;98.05;38.70;;;;;;;-0.90;100.00;101758.63;4915917;29;20393;-81
2022/01/23 06:05:39;;;;;;;94.00;35.92;;;;;;;-0.93;100.00;101758.75;4915676;29;20035;-81
2022/01/23 06:08:10;;;;;;;97.70;38.10;;;;;;;-0.90;100.00;101769.03;4915495;29;20403;-82
2022/01/23 06:10:53;;;;;;;105.93;37.47;;;;;;;-0.85;100.00;101772.28;4916158;29;20079;-85
2022/01/23 06:13:19;;;;;;;;;;;;;;;-0.65;100.00;101771.50;4916095;29;20036;-82
2022/01/23 06:15:45;;;;;;;85.20;32.85;;;;;;;-0.78;100.00;101770.28;4916903;29;19919;-79
2022/01/23 06:18:11;;;;;;;88.18;32.88;;;;;;;-0.91;100.00;101769.94;4916761;29;20050;-81
2022/01/23 06:20:55;;;;;;;89.75;32.53;;;;;;;-0.87;100.00;101779.31;4917422;29;20051;-83
2022/01/23 06:23:44;;;;;;;83.72;31.88;;;;;;;-0.53;100.00;101774.47;4908812;29;20131;-81
2022/01/23 06:26:46;;;;;;;85.75;33.88;;;;;;;-0.54;100.00;101777.16;4915371;29;20437;-84
2022/01/23 06:29:15;;;;;;;78.43;33.60;;;;;;;-0.24;100.00;101780.28;4917762;29;20047;-83
2022/01/23 06:31:41;;;;;;;90.15;35.25;;;;;;;-0.37;100.00;101790.34;4916917;29;20036;-83
2022/01/23 06:34:07;;;;;;;92.22;34.03;;;;;;;-0.37;100.00;101794.72;4915658;29;20037;-82
2022/01/23 06:36:35;;;;;;;93.75;35.85;;;;;;;-0.43;100.00;101789.75;4916185;29;20140;-85
2022/01/23 06:39:01;;;;;;;96.53;37.45;;;;;;;-0.43;100.00;101794.97;4901517;29;20044;-82
2022/01/23 06:41:27;;;;;;;87.63;34.85;;;;;;;-0.38;100.00;101798.22;4915112;29;20390;-82
2022/01/23 06:44:15;;;;;;;106.65;38.45;;;;;;;-0.29;100.00;101810.84;4916396;29;20052;-82
2022/01/23 06:46:43;;;;;;;101.47;38.35;;;;;;;-0.49;100.00;101816.84;4918014;29;20133;-83
2022/01/23 06:49:10;;;;;;;117.93;42.65;;;;;;;-0.57;100.00;101814.56;4917310;29;20486;-83
2022/01/23 06:51:38;;;;;;;116.18;42.40;;;;;;;-0.75;100.00;101815.28;4915284;29;20032;-81
2022/01/23 06:54:06;;;;;;;113.95;41.88;;;;;;;-0.67;100.00;101823.66;4915389;29;20024;-85
2022/01/23 06:56:33;;;;;;;123.22;45.40;;;;;;;-0.88;100.00;101827.06;4915754;29;20039;-82
2022/01/23 06:58:58;;;;;;;128.75;46.85;;;;;;;-0.92;100.00;101835.88;4916234;29;20040;-83
2022/01/23 07:01:24;;;;;;;126.35;46.85;;;;;;;-0.92;100.00;101833.28;4915125;29;20043;-82
2022/01/23 07:04:13;;;;;;;135.45;46.50;;;;;;;-1.11;100.00;101842.66;4904562;29;20052;-80
2022/01/23 07:07:10;;;;;;;137.55;45.70;;;;;;;-0.77;100.00;101843.13;4924372;29;20044;-83
2022/01/23 07:09:56;;;;;;;118.93;43.85;;;;;;;-0.58;100.00;101851.94;4939819;29;20028;-84
2022/01/23 07:12:22;;;;;;;119.32;43.63;;;;;;;-0.34;100.00;101851.88;4919055;29;20066;-85
2022/01/23 07:15:07;;;;;;;119.30;43.42;;;;;;;-0.49;100.00;101855.91;4916810;29;20059;-87
2022/01/23 07:17:59;;;;;;;124.13;45.13;;;;;;;-0.83;100.00;101853.75;4912735;29;20467;-84
2022/01/23 07:20:30;;;;;;;113.15;42.85;;;;;;;-0.79;100.00;101852.72;4917753;29;20044;-81
2022/01/23 07:23:08;;;;;;;111.93;41.88;;;;;;;-0.48;100.00;101854.16;4919686;29;20493;-84
2022/01/23 07:25:37;;;;;;;121.95;44.05;;;;;;;-0.71;100.00;101871.53;4920675;29;20036;-85
2022/01/23 07:28:05;;;;;;;123.20;42.80;;;;;;;-0.64;100.00;101867.78;4903755;29;20044;-84
2022/01/23 07:30:43;;;;;;;127.35;45.97;;;;;;;-0.66;100.00;101877.38;4918251;29;20131;-82
2022/01/23 07:33:09;;;;;;;119.05;44.05;;;;;;;-0.36;100.00;101877.13;4919866;29;20482;-80
2022/01/23 07:35:34;;;;;;;130.80;46.03;;;;;;;-0.49;100.00;101884.56;4917975;29;20043;-81
2022/01/23 07:38:00;;;;;;;122.68;45.05;;;;;;;-0.41;100.00;101892.09;4917841;29;20032;-83
2022/01/23 07:40:45;;;;;;;110.93;42.42;;;;;;;-0.10;100.00;101897.81;4922756;29;20040;-86
2022/01/23 07:43:17;;;;;;;106.72;39.60;;;;;;;-0.05;100.00;101890.66;4918357;29;20044;-82
2022/01/23 07:46:01;;;;;;;115.47;42.25;;;;;;;0.22;100.00;101907.78;4919045;29;20051;-87
2022/01/23 07:48:47;;;;;;;113.65;42.88;;;;;;;0.04;100.00;101905.91;4915161;29;20405;-85
2022/01/23 07:51:39;;;;;;;136.17;46.77;;;;;;;-0.19;100.00;101903.38;4903816;29;20441;-82
2022/01/23 07:54:43;;;;;;;128.43;47.17;;;;;;;-0.03;100.00;101909.66;4862011;29;20049;-84
2022/01/23 07:57:31;;;;;;;115.72;45.88;;;;;;;0.42;100.00;101913.03;4844785;29;20072;-86
2022/01/23 08:00:17;;;;;;;116.53;45.90;;;;;;;0.92;100.00;101925.69;4860443;29;20543;-82
2022/01/23 08:02:42;;;;;;;111.30;43.03;;;;;;;1.11;100.00;101917.91;4860738;29;20054;-83
2022/01/23 08:05:43;;;;;;;119.28;47.70;;;;;;;0.99;100.00;101924.53;4858762;29;20084;-80
2022/01/23 08:08:44;;;;;;;;;;;;;;;1.38;100.00;101927.13;4870393;29;20049;-84
2022/01/23 08:11:15;;;;;;;109.45;43.58;;;;;;;1.73;100.00;101928.09;4879571;29;19919;-82
2022/01/23 08:13:40;;;;;;;104.35;43.67;;;;;;;1.72;100.00;101926.44;4878865;29;20068;-83
2022/01/23 08:16:06;;;;;;;106.47;44.28;;;;;;;1.11;100.00;101934.41;4880494;29;20041;-87
2022/01/23 08:18:31;;;;;;;98.03;41.65;;;;;;;1.26;100.00;101944.16;4882485;29;20080;-82
2022/01/23 08:20:57;;;;;;;109.00;45.53;;;;;;;1.06;100.00;101939.00;4884893;29;20045;-84
2022/01/23 08:23:23;;;;;;;103.10;44.13;;;;;;;0.68;100.00;101939.78;4880641;29;20040;-89
2022/01/23 08:25:50;;;;;;;114.80;45.20;;;;;;;0.67;100.00;101935.47;4901678;29;20063;-85
2022/01/23 08:28:16;;;;;;;113.70;42.83;;;;;;;0.80;100.00;101939.25;4934430;29;20133;-84
2022/01/23 08:30:42;;;;;;;110.85;45.67;;;;;;;0.71;100.00;101942.25;4939497;29;20044;-84
2022/01/23 08:33:07;;;;;;;118.85;45.20;;;;;;;0.50;100.00;101944.00;4945828;29;20042;-82
2022/01/23 08:35:33;;;;;;;120.43;45.97;;;;;;;0.43;100.00;101935.56;4945284;29;20103;-85
2022/01/23 08:37:59;;;;;;;119.95;48.10;;;;;;;0.85;100.00;101938.16;4937765;29;20124;-83
2022/01/23 08:43:21;;;;;;;110.40;45.80;;;;;;;1.02;100.00;101946.13;4885418;29;20523;-82
2022/01/23 08:45:46;;;;;;;114.70;44.40;;;;;;;1.18;100.00;101951.50;4938496;29;20063;-82
2022/01/23 08:48:12;;;;;;;112.65;45.30;;;;;;;1.22;100.00;101952.22;4939065;29;20042;-81
2022/01/23 08:50:38;;;;;;;107.53;43.90;;;;;;;0.96;100.00;101953.38;4938743;29;20155;-81
2022/01/23 08:53:04;;;;;;;109.20;41.85;;;;;;;0.83;100.00;101954.81;4937700;29;20366;-83
2022/01/23 08:55:29;;;;;;;108.93;44.80;;;;;;;0.69;100.00;101947.56;4936345;29;20024;-82
2022/01/23 08:57:55;;;;;;;100.97;41.80;;;;;;;0.66;100.00;101952.06;4936762;29;20098;-81
2022/01/23 09:00:21;;;;;;;99.00;41.28;;;;;;;0.73;100.00;101943.06;4937116;29;20040;-85
2022/01/23 09:02:47;;;;;;;93.63;39.00;;;;;;;1.07;100.00;101952.88;4937601;29;20039;-81
2022/01/23 09:05:12;;;;;;;87.10;37.83;;;;;;;0.95;100.00;101949.06;4937614;29;20099;-82
2022/01/23 09:07:38;;;;;;;91.97;36.92;;;;;;;1.08;100.00;101944.13;4937679;29;20075;-85
2022/01/23 09:10:04;;;;;;;86.15;35.15;;;;;;;1.12;100.00;101946.56;4941331;29;20257;-83
2022/01/23 09:13:30;;;;;;;105.13;41.13;;;;;;;1.33;100.00;101939.53;4938729;29;20478;-84
2022/01/23 09:15:16;;;;;;;111.38;44.83;;;;;;;1.35;100.00;101932.47;4922655;29;20039;-84
2022/01/23 09:17:41;;;;;;;118.00;45.85;;;;;;;1.64;100.00;101928.53;4938111;29;20030;-81
2022/01/23 09:20:08;;;;;;;112.70;45.75;;;;;;;1.79;100.00;101933.06;4939619;29;20385;-83
2022/01/23 09:22:33;;;;;;;110.25;45.95;;;;;;;2.05;100.00;101924.84;4932359;29;20062;-84
2022/01/23 09:25:00;;;;;;;108.72;46.35;;;;;;;2.24;100.00;101920.41;4936333;29;20115;-82
2022/01/23 09:27:27;;;;;;;114.88;48.65;;;;;;;2.35;100.00;101925.97;4932149;29;20082;-83
2022/01/23 09:29:54;;;;;;;110.93;45.85;;;;;;;2.65;100.00;101920.13;4936516;29;20027;-85
2022/01/23 09:32:23;;;;;;;102.60;44.03;;;;;;;2.32;100.00;101917.44;4938612;29;20063;-85
2022/01/23 09:34:51;;;;;;;100.88;42.53;;;;;;;2.31;100.00;101942.72;4936961;29;20466;-82
2022/01/23 09:37:19;;;;;;;92.60;40.22;;;;;;;2.35;100.00;101951.28;4934689;29;20512;-84
2022/01/23 09:39:49;;;;;;;95.65;40.58;;;;;;;2.23;100.00;101952.69;4930850;29;20375;-83
2022/01/23 09:42:19;;;;;;;108.05;42.70;;;;;;;2.26;100.00;101960.41;4916660;29;20036;-83
2022/01/23 09:44:50;;;;;;;85.03;38.53;;;;;;;2.23;100.00;101975.41;4915624;29;20442;-81
2022/01/23 09:47:21;;;;;;;84.72;37.42;;;;;;;2.38;100.00;101979.91;4918273;29;20077;-85
2022/01/23 09:49:50;;;;;;;83.05;34.88;;;;;;;2.30;100.00;101976.78;4920363;29;20096;-81
2022/01/23 09:52:17;;;;;;;81.07;36.50;;;;;;;2.31;100.00;101979.34;4927595;29;20060;-83
2022/01/23 09:54:45;;;;;;;84.60;37.95;;;;;;;2.39;100.00;101986.81;4931496;29;20056;-83
2022/01/23 09:57:13;;;;;;;90.45;40.47;;;;;;;2.10;100.00;102001.28;4947912;28;20028;-81
2022/01/23 09:59:40;;;;;;;83.97;38.38;;;;;;;1.85;100.00;102006.81;4935948;28;20146;-81
2022/01/23 10:02:05;;;;;;;93.45;42.63;;;;;;;1.80;100.00;102002.69;4929489;29;20047;-83
2022/01/23 10:04:32;;;;;;;92.60;38.58;;;;;;;1.91;100.00;102010.91;4929199;29;20035;-81
2022/01/23 10:06:57;;;;;;;86.90;38.83;;;;;;;2.02;100.00;102006.88;4934384;29;20038;-82
2022/01/23 10:09:26;;;;;;;93.63;42.20;;;;;;;1.96;100.00;102020.22;4934933;29;20028;-83
2022/01/23 10:11:52;;;;;;;107.88;45.67;;;;;;;2.02;100.00;102025.16;4934262;29;20122;-83
2022/01/23 10:14:19;;;;;;;104.88;48.50;;;;;;;2.00;100.00;102018.31;4923000;29;20036;-82
2022/01/23 10:16:46;;;;;;;99.57;44.90;;;;;;;2.10;100.00;102014.34;4932461;29;20032;-83
2022/01/23 10:19:12;;;;;;;97.53;42.83;;;;;;;2.10;100.00;102019.59;4917471;29;20060;-83
2022/01/23 10:21:40;;;;;;;99.78;44.33;;;;;;;2.16;100.00;102015.81;4928438;29;20034;-82
2022/01/23 10:24:07;;;;;;;91.45;41.10;;;;;;;2.31;100.00;102020.34;4929290;29;20046;-81
2022/01/23 10:26:47;;;;;;;81.82;39.25;;;;;;;2.22;100.00;102021.63;4931047;29;20110;-81
2022/01/23 10:29:26;;;;;;;86.97;40.60;;;;;;;2.21;100.00;102014.72;4924394;29;20398;-82
2022/01/23 10:32:20;;;;;;;89.85;41.92;;;;;;;2.12;100.00;102020.38;4925594;29;20032;-81
2022/01/23 10:34:50;;;;;;;99.00;43.53;;;;;;;2.09;100.00;102021.34;4929457;29;20032;-83
2022/01/23 10:37:26;;;;;;;87.70;41.03;;;;;;;2.12;100.00;102016.91;4930120;29;20048;-83
2022/01/23 10:39:52;;;;;;;90.55;41.78;;;;;;;2.01;100.00;102026.09;4923264;29;20393;-84
2022/01/23 10:50:44;;;;;;;96.22;42.92;;;;;;;2.21;100.00;102035.63;4930263;29;20036;-82
2022/01/23 10:53:09;;;;;;;102.65;44.90;;;;;;;2.25;100.00;102028.50;4929387;29;20094;-82
2022/01/23 10:55:36;;;;;;;103.47;45.40;;;;;;;2.24;100.00;102027.66;4931149;29;20046;-82
2022/01/23 10:58:06;;;;;;;98.00;43.25;;;;;;;2.24;100.00;102025.03;4936703;29;20405;-81
2022/01/23 11:00:36;;;;;;;89.22;40.70;;;;;;;2.68;100.00;102022.91;4932255;29;20071;-81
2022/01/23 11:03:14;;;;;;;86.30;38.92;;;;;;;2.83;100.00;102010.81;4935336;29;20095;-80
2022/01/23 11:05:40;;;;;;;87.15;40.35;;;;;;;2.71;100.00;102000.97;4927473;29;20028;-80
2022/01/23 11:08:23;;;;;;;87.93;40.97;;;;;;;2.46;100.00;102017.00;4934491;29;20039;-82
2022/01/23 11:10:59;;;;;;;89.18;40.88;;;;;;;2.52;100.00;102011.47;4937836;29;20048;-82
2022/01/23 11:19:21;;;;;;;82.63;39.22;;;;;;;2.77;100.00;101992.78;4927877;29;20047;-80
2022/01/23 11:21:47;;;;;;;92.20;41.85;;;;;;;2.80;100.00;101998.72;4926232;29;20406;-82
2022/01/23 11:24:14;;;;;;;97.32;44.10;;;;;;;2.79;100.00;101990.94;4938771;29;20032;-81
2022/01/23 11:26:40;;;;;;;95.63;44.03;;;;;;;2.91;100.00;101979.88;4939151;29;20102;-79
2022/01/23 11:29:12;;;;;;;96.68;43.88;;;;;;;2.82;100.00;101972.44;4938719;29;20494;-81
2022/01/23 11:31:39;;;;;;;103.25;45.42;;;;;;;2.90;100.00;101963.31;4931486;29;20039;-79
2022/01/23 11:34:08;;;;;;;104.55;45.83;;;;;;;2.93;100.00;101960.53;4928411;29;20119;-82
2022/01/23 11:36:35;;;;;;;105.35;47.63;;;;;;;3.02;100.00;101962.66;4926382;29;20110;-84
2022/01/23 11:39:10;;;;;;;106.07;47.60;;;;;;;3.08;100.00;101956.28;4927036;29;20510;-83
2022/01/23 11:56:25;;;;;;;108.90;49.17;;;;;;;3.66;100.00;101959.28;4939132;29;20076;-83
2022/01/23 11:59:27;;;;;;;108.00;48.33;;;;;;;3.67;100.00;101955.75;4938992;29;20386;-84
2022/01/23 12:02:30;;;;;;;110.40;51.10;;;;;;;3.74;100.00;101958.88;4936374;29;20417;-84
2022/01/23 12:05:17;;;;;;;110.43;51.38;;;;;;;3.90;100.00;101952.72;4938812;29;20091;-84
2022/01/23 12:07:45;;;;;;;117.05;51.28;;;;;;;3.88;100.00;101949.31;4937595;29;20035;-80
2022/01/23 12:10:31;;;;;;;117.97;54.35;;;;;;;3.85;100.00;101956.50;4935771;29;20051;-81
2022/01/23 12:13:55;;;;;;;111.43;51.03;;;;;;;3.86;100.00;101943.31;4940199;29;20076;-82
2022/01/23 12:16:27;;;;;;;111.55;52.80;;;;;;;3.84;100.00;101942.56;4939392;29;20047;-84
2022/01/23 12:19:20;;;;;;;123.72;56.95;;;;;;;3.87;100.00;101936.31;4938605;29;20040;-85
2022/01/23 12:21:46;;;;;;;127.60;61.35;;;;;;;3.98;100.00;101926.03;4937441;29;20040;-82
2022/01/23 12:24:14;;;;;;;128.95;61.72;;;;;;;4.08;100.00;101929.84;4938035;29;20035;-89
2022/01/23 12:26:47;;;;;;;122.00;58.83;;;;;;;4.18;100.00;101925.78;4940498;29;20034;-84
2022/01/23 12:29:25;;;;;;;117.38;56.42;;;;;;;4.12;100.00;101936.63;4942347;29;20059;-79
2022/01/23 12:32:16;;;;;;;126.32;60.85;;;;;;;4.20;100.00;101939.66;4931417;29;20035;-81
2022/01/23 12:34:51;;;;;;;113.70;53.20;;;;;;;4.23;100.00;101938.63;4930607;29;20043;-82
2022/01/23 12:37:19;;;;;;;110.13;53.30;;;;;;;4.10;100.00;101925.38;4929866;29;20441;-81
2022/01/23 12:39:46;;;;;;;114.68;54.53;;;;;;;4.23;100.00;101923.75;4933970;29;20127;-80
2022/01/23 12:42:12;;;;;;;121.85;57.15;;;;;;;4.15;100.00;101920.69;4943574;29;20035;-82
2022/01/23 12:44:39;;;;;;;121.40;57.78;;;;;;;4.18;100.00;101920.53;4953853;28;20091;-82
2022/01/23 12:47:18;;;;;;;122.75;57.55;;;;;;;4.03;100.00;101921.41;4951124;28;20039;-82
2022/01/23 12:49:49;;;;;;;122.97;55.65;;;;;;;4.05;100.00;101919.53;4941955;29;20043;-83
2022/01/23 12:52:18;;;;;;;121.20;55.38;;;;;;;4.22;100.00;101922.03;4932290;29;20044;-81
2022/01/23 12:54:46;;;;;;;122.20;55.03;;;;;;;4.27;100.00;101908.69;4935524;29;20038;-82
2022/01/23 12:57:14;;;;;;;116.43;55.08;;;;;;;4.30;100.00;101904.09;4936502;29;20501;-81
2022/01/23 12:59:42;;;;;;;121.05;56.88;;;;;;;4.41;100.00;101901.69;4933445;29;20504;-80
2022/01/23 13:02:36;;;;;;;130.85;59.10;;;;;;;4.48;100.00;101891.66;4929122;29;20122;-81
2022/01/23 13:05:02;;;;;;;123.95;58.22;;;;;;;4.54;100.00;101884.28;4931695;29;20110;-80
2022/01/23 13:10:37;;;;;;;138.02;60.97;;;;;;;4.38;100.00;101886.09;4920571;29;20069;-83
2022/01/23 13:16:13;;;;;;;130.05;61.30;;;;;;;4.50;100.00;101885.41;4926774;29;20046;-82
2022/01/23 13:19:20;;;;;;;151.02;65.75;;;;;;;4.46;100.00;101889.16;4937012;29;20052;-83
2022/01/23 13:30:15;;;;;;;132.20;60.60;;;;;;;4.58;100.00;101890.19;4935942;29;20090;-81
2022/01/23 13:32:45;;;;;;;127.38;60.53;;;;;;;4.53;100.00;101885.25;4935084;29;20047;-85
2022/01/23 13:35:16;;;;;;;135.45;60.70;;;;;;;4.44;100.00;101883.13;4931488;29;20047;-83
2022/01/23 13:37:47;;;;;;;133.18;62.90;;;;;;;4.22;100.00;101885.31;4936281;29;20046;-82
2022/01/23 13:40:19;;;;;;;137.48;62.95;;;;;;;4.58;100.00;101888.41;4935372;29;20409;-82
2022/01/23 13:47:52;;;;;;;135.98;63.60;;;;;;;4.66;100.00;101886.19;4935330;29;20064;-84
2022/01/23 13:59:56;;;;;;;142.38;65.25;;;;;;;4.18;100.00;101874.16;4936012;29;20126;-81
2022/01/23 14:02:43;;;;;;;147.20;66.32;;;;;;;4.21;100.00;101867.06;4938865;29;20039;-80
2022/01/23 14:05:14;;;;;;;146.55;66.32;;;;;;;4.14;100.00;101871.81;4933341;29;20035;-83
2022/01/23 14:08:08;;;;;;;153.15;65.50;;;;;;;4.22;100.00;101856.44;4940737;29;20370;-82
2022/01/23 14:11:01;;;;;;;145.80;65.45;;;;;;;4.18;100.00;101850.53;4938675;29;20054;-82
2022/01/23 14:13:27;;;;;;;141.20;65.38;;;;;;;4.30;100.00;101849.00;4926260;29;20060;-79
2022/01/23 14:15:55;;;;;;;143.07;68.40;;;;;;;4.18;100.00;101841.81;4931628;29;20036;-83
2022/01/23 14:18:46;;;;;;;146.95;66.68;;;;;;;4.25;100.00;101845.78;4950704;29;20085;-87
2022/01/23 14:21:42;;;;;;;144.13;66.68;;;;;;;4.37;100.00;101846.84;4947462;29;20139;-80
2022/01/23 14:24:08;;;;;;;143.85;67.28;;;;;;;4.26;100.00;101844.84;4942364;29;20028;-81
2022/01/23 14:26:34;;;;;;;145.65;66.97;;;;;;;4.50;100.00;101838.16;4943402;29;20166;-81
2022/01/23 14:29:08;;;;;;;145.88;67.65;;;;;;;4.41;100.00;101837.88;4944486;29;20520;-84
2022/01/23 14:31:38;;;;;;;141.77;66.88;;;;;;;4.49;100.00;101830.38;4926914;29;20036;-81
2022/01/23 14:34:24;;;;;;;147.93;65.68;;;;;;;4.40;100.00;101837.03;4941691;29;20576;-83
2022/01/23 14:37:27;;;;;;;152.10;67.28;;;;;;;4.37;100.00;101837.22;4939289;29;20048;-85
2022/01/23 14:40:25;;;;;;;150.98;70.15;;;;;;;4.22;100.00;101831.97;4927879;29;20052;-86
2022/01/23 14:43:02;;;;;;;157.90;72.93;;;;;;;4.16;100.00;101827.94;4941222;29;20148;-87
2022/01/23 14:45:32;;;;;;;155.73;70.95;;;;;;;4.09;100.00;101826.59;4937305;29;20047;-86
2022/01/23 14:48:28;;;;;;;159.50;71.28;;;;;;;4.29;100.00;101818.44;4944789;29;20477;-87
2022/01/23 14:50:56;;;;;;;166.77;73.68;;;;;;;4.26;100.00;101817.75;4950586;29;20040;-84
2022/01/23 14:53:42;;;;;;;163.63;73.28;;;;;;;4.36;100.00;101819.75;4942826;29;20209;-82